createdAt,value
2018-08-20T00:04:13.922Z,76.70
2018-08-20T00:14:22.108Z,76.20
2018-08-20T00:19:25.441Z,75.10
2018-08-20T00:24:28.761Z,76.80
2018-08-20T00:29:35.334Z,75.80
2018-08-20T00:34:40.303Z,77.70
2018-08-20T00:39:43.593Z,78.50
2018-08-20T00:44:47.026Z,79.20
2018-08-20T00:49:50.333Z,81.20
2018-08-20T00:54:53.650Z,80.40
2018-08-20T00:59:56.960Z,80.80
2018-08-20T01:05:01.579Z,76.70
2018-08-20T01:10:06.747Z,78.60
2018-08-20T01:15:10.305Z,79.90
2018-08-20T01:20:14.220Z,79.70
2018-08-20T01:25:17.854Z,80.50
2018-08-20T01:30:21.268Z,79.30
2018-08-20T01:35:27.171Z,82.10
2018-08-20T01:40:30.557Z,78.90
2018-08-20T01:45:34.072Z,80.60
2018-08-20T01:50:37.641Z,79.10
2018-08-20T01:55:41.125Z,80.80
2018-08-20T02:00:44.634Z,82.10
2018-08-20T02:05:47.987Z,82.50
2018-08-20T02:10:51.418Z,81.60
2018-08-20T02:15:54.813Z,81.60
2018-08-20T02:20:58.200Z,81.10
2018-08-20T02:26:01.821Z,85.10
2018-08-20T02:31:05.325Z,84.20
2018-08-20T02:36:08.740Z,84.50
2018-08-20T02:41:12.531Z,81.30
2018-08-20T02:46:16.254Z,82.20
2018-08-20T02:51:19.792Z,85.50
2018-08-20T02:56:23.163Z,81.10
2018-08-20T03:01:26.584Z,82.70
2018-08-20T03:06:29.921Z,83.60
2018-08-20T03:11:33.294Z,82.80
2018-08-20T03:16:37.168Z,82.50
2018-08-20T03:21:40.478Z,82.50
2018-08-20T03:26:43.928Z,83.20
2018-08-20T03:31:47.414Z,84.10
2018-08-20T03:36:50.837Z,83.00
2018-08-20T03:41:54.208Z,83.50
2018-08-20T03:46:57.525Z,83.50
2018-08-20T03:52:00.901Z,84.50
2018-08-20T03:57:04.550Z,85.00
2018-08-20T04:02:08.574Z,84.10
2018-08-20T04:07:12.061Z,85.10
2018-08-20T04:12:15.452Z,86.80
2018-08-20T04:17:18.899Z,84.80
2018-08-20T04:22:22.237Z,85.90
2018-08-20T04:27:25.653Z,86.00
2018-08-20T04:32:29.062Z,85.80
2018-08-20T04:37:32.360Z,85.10
2018-08-20T04:42:35.928Z,85.80
2018-08-20T04:47:39.321Z,85.70
2018-08-20T04:52:42.687Z,87.00
2018-08-20T04:57:46.142Z,86.50
2018-08-20T05:02:49.414Z,86.90
2018-08-20T05:07:52.821Z,84.80
2018-08-20T05:12:56.127Z,86.00
2018-08-20T05:17:59.449Z,87.20
2018-08-20T05:23:03.090Z,90.20
2018-08-20T05:28:06.552Z,90.00
2018-08-20T05:33:10.493Z,91.40
2018-08-20T05:38:13.856Z,91.10
2018-08-20T05:43:17.378Z,90.60
2018-08-20T05:48:20.793Z,91.10
2018-08-20T05:53:24.358Z,91.20
2018-08-20T05:58:27.665Z,91.80
2018-08-20T06:03:31.133Z,91.60
2018-08-20T06:08:34.440Z,91.10
2018-08-20T06:13:37.813Z,90.80
2018-08-20T06:18:41.264Z,90.80
2018-08-20T06:23:44.595Z,89.60
2018-08-20T06:28:48.037Z,88.10
2018-08-20T06:33:51.608Z,86.50
2018-08-20T06:38:55.195Z,85.60
2018-08-20T06:43:58.490Z,84.50
2018-08-20T06:49:01.965Z,84.30
2018-08-20T06:54:05.369Z,82.60
2018-08-20T06:59:08.717Z,82.60
2018-08-20T07:04:12.148Z,81.70
2018-08-20T07:09:15.497Z,81.10
2018-08-20T07:14:18.861Z,78.70
2018-08-20T07:19:22.153Z,78.90
2018-08-20T07:24:25.480Z,76.80
2018-08-20T07:29:37.808Z,76.00
2018-08-20T07:34:42.293Z,76.10
2018-08-20T07:39:47.677Z,69.90
2018-08-20T07:44:50.968Z,69.10
2018-08-20T07:49:54.380Z,69.40
2018-08-20T07:54:57.728Z,71.50
2018-08-20T08:00:01.117Z,69.20
2018-08-20T08:05:05.505Z,67.30
2018-08-20T08:10:11.252Z,67.10
2018-08-20T08:15:15.583Z,64.70
2018-08-20T08:20:19.108Z,66.00
2018-08-20T12:04:10.697Z,41.20
2018-08-20T12:09:14.059Z,40.10
2018-08-20T12:14:17.434Z,39.70
2018-08-20T12:19:20.841Z,40.20
2018-08-20T12:24:24.213Z,40.30
2018-08-20T12:29:27.852Z,40.30
2018-08-20T12:34:31.279Z,39.40
2018-08-20T12:39:34.688Z,40.80
2018-08-20T12:44:38.077Z,39.40
2018-08-20T12:49:41.483Z,39.80
2018-08-20T12:54:45.054Z,40.20
2018-08-20T12:59:52.500Z,39.70
2018-08-20T13:04:56.048Z,39.40
2018-08-20T13:09:59.400Z,39.80
2018-08-20T13:15:02.822Z,39.90
2018-08-20T13:20:06.136Z,39.90
2018-08-20T13:25:09.873Z,39.50
2018-08-20T13:30:13.143Z,39.50
2018-08-20T13:35:16.494Z,38.90
2018-08-20T13:40:19.804Z,40.60
2018-08-20T13:45:23.155Z,39.30
2018-08-20T13:50:26.584Z,39.60
2018-08-20T14:05:36.396Z,38.70
2018-08-20T14:10:39.900Z,39.60
2018-08-20T14:15:43.492Z,39.50
2018-08-20T14:20:57.716Z,38.70
2018-08-20T14:26:01.332Z,38.70
2018-08-20T14:31:04.895Z,38.50
2018-08-20T14:36:08.720Z,38.20
2018-08-20T14:46:20.772Z,38.60
2018-08-20T14:51:24.189Z,38.30
2018-08-20T14:56:27.623Z,38.20
2018-08-20T15:01:31.092Z,38.20
2018-08-20T15:06:39.805Z,37.70
2018-08-20T15:11:43.288Z,37.60
2018-08-20T15:16:46.826Z,38.50
2018-08-20T15:21:50.355Z,37.70
2018-08-20T15:26:53.648Z,37.30
2018-08-20T15:31:56.947Z,38.30
2018-08-20T15:37:00.346Z,38.80
2018-08-20T15:42:03.666Z,39.40
2018-08-20T15:47:07.016Z,39.80
2018-08-20T15:52:10.316Z,39.80
2018-08-20T15:57:13.599Z,39.80
2018-08-20T16:02:16.994Z,40.00
2018-08-20T16:07:20.272Z,39.60
2018-08-20T16:12:23.659Z,39.80
2018-08-20T16:17:26.918Z,40.20
2018-08-20T16:22:30.207Z,41.20
2018-08-20T16:27:33.583Z,40.50
2018-08-20T16:32:37.029Z,40.20
2018-08-20T16:37:41.065Z,42.30
2018-08-20T16:42:44.438Z,41.20
2018-08-20T16:47:47.690Z,41.60
2018-08-20T16:52:51.047Z,41.60
2018-08-20T16:57:54.456Z,41.90
2018-08-20T17:02:57.850Z,41.60
2018-08-20T17:08:01.445Z,41.90
2018-08-20T17:13:04.800Z,43.20
2018-08-20T17:18:08.288Z,43.70
2018-08-20T17:23:18.890Z,45.10
2018-08-20T17:28:23.608Z,46.80
2018-08-20T17:33:31.420Z,48.00
2018-08-20T17:38:34.772Z,48.90
2018-08-20T17:43:38.115Z,49.60
2018-08-20T17:48:41.422Z,50.20
2018-08-20T17:53:52.025Z,51.00
2018-08-20T17:59:00.764Z,51.80
2018-08-20T18:04:04.169Z,52.40
2018-08-20T18:09:07.572Z,53.00
2018-08-20T18:14:10.894Z,53.10
2018-08-20T18:19:14.362Z,53.80
2018-08-20T18:24:19.055Z,54.00
2018-08-20T18:29:22.443Z,54.70
2018-08-20T18:34:25.822Z,54.90
2018-08-20T18:39:29.156Z,55.90
2018-08-20T18:44:32.453Z,56.40
2018-08-20T18:49:39.373Z,56.60
2018-08-20T18:54:58.354Z,56.90
2018-08-20T19:00:03.366Z,57.70
2018-08-20T19:05:09.528Z,57.70
2018-08-20T19:10:18.982Z,58.80
2018-08-20T19:15:30.826Z,59.40
2018-08-20T19:20:34.133Z,59.00
2018-08-20T19:25:38.291Z,59.60
2018-08-20T19:30:41.949Z,61.20
2018-08-20T19:35:45.515Z,60.50
2018-08-20T19:40:58.035Z,60.30
2018-08-20T19:46:01.357Z,61.40
2018-08-20T19:51:06.278Z,62.00
2018-08-20T19:56:12.056Z,61.10
2018-08-20T20:01:16.523Z,64.70
2018-08-20T20:06:19.864Z,64.10
2018-08-20T20:11:28.967Z,64.60
2018-08-20T20:16:39.307Z,64.90
2018-08-20T20:21:42.816Z,63.70
2018-08-20T20:26:46.206Z,64.40
2018-08-20T20:31:49.444Z,64.70
2018-08-20T20:36:52.856Z,65.80
2018-08-20T20:41:56.151Z,66.20
2018-08-20T20:46:59.484Z,66.20
2018-08-20T20:52:02.848Z,66.50
2018-08-20T20:57:06.288Z,66.50
2018-08-20T21:02:10.137Z,66.90
2018-08-20T21:07:16.739Z,66.70
2018-08-20T21:12:19.979Z,67.00
2018-08-20T21:17:23.266Z,67.20
2018-08-20T21:22:26.679Z,67.80
2018-08-20T21:27:30.068Z,68.10
2018-08-20T21:32:33.346Z,68.20
2018-08-20T21:37:36.659Z,68.00
2018-08-20T21:42:42.284Z,68.40
2018-08-20T21:47:45.619Z,69.40
2018-08-20T21:52:48.969Z,68.20
2018-08-20T21:57:56.470Z,68.70
2018-08-20T22:03:00.769Z,68.60
2018-08-20T22:08:04.078Z,69.50
2018-08-20T22:13:07.389Z,67.90
2018-08-20T22:18:10.716Z,68.40
2018-08-20T22:23:25.271Z,70.00
2018-08-20T22:28:17.300Z,69.70
2018-08-20T22:33:20.576Z,70.70
2018-08-20T22:38:23.887Z,73.70
2018-08-20T22:43:27.147Z,74.90
2018-08-20T22:48:30.471Z,74.80
2018-08-20T22:53:33.833Z,73.00
2018-08-20T22:58:37.110Z,75.30
2018-08-20T23:03:40.454Z,71.80
2018-08-20T23:08:43.780Z,75.20
2018-08-20T23:13:47.043Z,73.90
2018-08-20T23:18:50.327Z,72.80
2018-08-20T23:23:53.579Z,75.70
2018-08-20T23:28:56.952Z,77.60
2018-08-20T23:39:04.282Z,74.90
2018-08-20T23:44:07.646Z,75.00
2018-08-20T23:49:11.030Z,75.80
2018-08-20T23:54:14.519Z,75.10
2018-08-20T23:59:17.804Z,75.40
